Beaver Bay, MN

9:12 PM CDT on October 01, 2014 (GMT -0500)
Silver Bay Municipal | Change Station
CLOSE
Current Station
Airport
Location: Silver Bay,
Elevation: 1086 ft
Nearby Weather Stations

Elev 1086 ft 47.25 °N, 91.42 °W | Updated 18 minutes ago

Fog
Fog
48 °F
Feels Like 48 °F
N
0
Wind Variable Wind from North

Today
High -- | Low -- °F
--% Chance of Precip.
Yesterday
High -- | Low -- °F
Precip. -- in
7:04 AM 6:45 PM
First Quarter, 53% visible
Pressure 29.81 in
Visibility 2.5 miles
Clouds Overcast 200 ft
Dew Point 48 °F
Humidity 100%
Rainfall 1.13 in
Snow Depth Not available.
UV 0 out of 12
Pollen .30 out of 12
Air Quality Not available.
Flu Activity Not available.
METAR KBFW 020154Z AUTO 00000KT 2 1/2SM BR OVC002 09/09 A2981 RMK AO2

More Conditions Fewer Conditions

Pressure 29.81 in
Visibility 2.5 miles
Clouds Overcast 200 ft
Dew Point 48 °F
Humidity 100%
Rainfall 1.13 in
Snow Depth Not available.
UV 0 out of 12
Pollen .30 out of 12
Air Quality Not available.
Flu Activity Not available.
METAR KBFW 020154Z AUTO 00000KT 2 1/2SM BR OVC002 09/09 A2981 RMK AO2

More Conditions Fewer Conditions

10-Day Weather Forecast

Almanac

Astronomy

Oct. 01, 2014 Rise Set
Actual Time 7:04 AM CDT 6:45 PM CDT
Civil Twilight 6:34 AM CDT 7:15 PM CDT
Nautical Twilight 5:58 AM CDT 7:51 PM CDT
Astronomical Twilight 5:22 AM CDT 8:27 PM CDT
Moon 2:22 PM CDT (10/1) No Moon Set
Length of Visible Light 12h 41m
Length of Day
11h 40m
Tomorrow will be 3m 22s shorter.
First Quarter, 53% of the Moon is Illuminated
Today
First Quarter
Oct 8
Full
Oct 15
Last Quarter
Oct 23
New
Oct 30
First Quarter

Today's Extremes

State Highs State Lows

Community

WunderPhotos

Upload Photos

1,758,137 photos uploaded!

WunderBlogs® & News

Nearby

Snow Depth

Station Depth Elevation
No new snow has been reported.

Earthquake Activity

City Distance Mag. Time & Date
No recent earthquake activity has been reported nearby.
Minimum magnitude displayed is 2.5.

Coastal Water Temperatures

Place Temperature
Duluth, MN 59.0 °F

Nearby Weather Stations